Windsor Airport
CYQG : now visible

Airfield :











YOU CAN JOIN US ON...

 
LOGIN :

Register | Disclaimer

   EN    FR    IT 

 









Legend :    VFR   Marginal VFR   IFR   Intensive IFR   Very Intensive IFR
Visi :
Ceiling :
>= 8 km
>= 3000ft
5 to 8 km
1000 to 3000 ft
1500m to 5 km
500 to 1000 ft
800 to 1500m
200 to 500 ft
< 800m
< 200 ft
Symbols :   Thunderstorms  Fog  Heavy snow  Heavy precipitations  Wind > 20 kt






- Airport Elevation : 622 ft
- IATA code : YQG


CYQG - Windsor

CURRENT METAR :
  • 280808Z AUTO 24006KT 9SM SCT008 OVC016 05/04 A3007 RMK SLP188

EXPIRED METARs :
  • 280700Z AUTO 26007KT 6SM BR BKN010 OVC021 05/04 A3010 RMK SLP201
  • 280643Z AUTO 27007KT 6SM BR BKN010 BKN025 OVC036 05/04 A3010 RMK SLP201
  • 280616Z AUTO 26007KT 5SM BR FEW008 BKN027 OVC036 05/04 A3010 RMK SLP200

TAF AMD TAF CYQG
Valid from the 28 at 06:00 until the 29 at 06:00 UTC


280622Z 2806/2906 26007KT 5SM BR BKN008 OVC025
TEMPO 2806/2813 P6SM NSW SCT008 OVC025
PROB30 2806/2809 3/4SM BR OVC003
FM281300 25012KT P6SM BKN012
BECMG 2813/2815 FEW030
FM290000 25008KT P6SM SKC RMK FCST BASED ON AUTO OBS. NXT FCST BY 281200Z
CZYZ FIR / North America



MET'MAP, your aeronautical weather chart ! - Copyright ORBIFLY December 2007 - Disclaimer

ORBIFLY MET'MAP TEAM :

Programming & Development : Alexandra Zaïnal
Concept & original design : Baudouin d'Aumeries
Assistance for programming : Marc-Olivier Méhu
Technical & hardware support : Manuel Goepfert

Contact : metmap@orbifly.com




SOURCES & CREDITS :

   NOAA       Earth
Advisory